sensor_id;sensor_type;location;lat;lon;timestamp;pressure;altitude;pressure_sealevel;temperature;humidity
63399;BME280;49533;-34.520;150.798;2023-02-26T00:01:14;100133.81;;;22.75;60.91
63399;BME280;49533;-34.520;150.798;2023-02-26T00:03:42;100126.28;;;22.79;60.64
63399;BME280;49533;-34.520;150.798;2023-02-26T00:06:09;100135.75;;;22.99;60.67
63399;BME280;49533;-34.520;150.798;2023-02-26T00:08:37;100139.28;;;23.07;60.44
63399;BME280;49533;-34.520;150.798;2023-02-26T00:11:06;100123.81;;;23.17;60.44
63399;BME280;49533;-34.520;150.798;2023-02-26T00:13:35;100109.97;;;23.13;60.59
63399;BME280;49533;-34.520;150.798;2023-02-26T00:16:03;100107.56;;;23.22;60.46
63399;BME280;49533;-34.520;150.798;2023-02-26T00:18:32;100115.41;;;23.35;60.60
63399;BME280;49533;-34.520;150.798;2023-02-26T00:21:00;100113.78;;;23.41;60.60
63399;BME280;49533;-34.520;150.798;2023-02-26T00:23:27;100092.44;;;23.38;60.77
63399;BME280;49533;-34.520;150.798;2023-02-26T00:25:56;100119.69;;;23.50;60.67
63399;BME280;49533;-34.520;150.798;2023-02-26T00:28:23;100124.81;;;23.52;60.97
63399;BME280;49533;-34.520;150.798;2023-02-26T00:30:50;100115.72;;;23.55;61.14
63399;BME280;49533;-34.520;150.798;2023-02-26T00:33:18;100121.19;;;23.62;61.14
63399;BME280;49533;-34.520;150.798;2023-02-26T00:35:46;100129.47;;;23.69;60.94
63399;BME280;49533;-34.520;150.798;2023-02-26T00:38:15;100123.13;;;23.72;61.14
63399;BME280;49533;-34.520;150.798;2023-02-26T00:40:48;100110.03;;;23.76;61.37
63399;BME280;49533;-34.520;150.798;2023-02-26T00:43:21;100106.44;;;23.79;61.22
63399;BME280;49533;-34.520;150.798;2023-02-26T00:46:06;100108.78;;;23.84;61.58
63399;BME280;49533;-34.520;150.798;2023-02-26T00:48:59;100095.31;;;23.86;61.59
63399;BME280;49533;-34.520;150.798;2023-02-26T00:51:34;100101.19;;;23.96;61.62
63399;BME280;49533;-34.520;150.798;2023-02-26T00:54:15;100086.50;;;23.95;61.93
63399;BME280;49533;-34.520;150.798;2023-02-26T00:56:43;100078.50;;;24.04;61.72
63399;BME280;49533;-34.520;150.798;2023-02-26T00:59:10;100086.34;;;24.13;61.95
63399;BME280;49533;-34.520;150.798;2023-02-26T01:01:37;100083.97;;;24.15;62.16
63399;BME280;49533;-34.520;150.798;2023-02-26T01:04:05;100081.97;;;24.16;62.31
63399;BME280;49533;-34.520;150.798;2023-02-26T01:06:36;100075.25;;;24.13;62.25
63399;BME280;49533;-34.520;150.798;2023-02-26T01:09:15;100066.91;;;24.17;62.20
63399;BME280;49533;-34.520;150.798;2023-02-26T01:11:44;100059.69;;;24.23;62.43
63399;BME280;49533;-34.520;150.798;2023-02-26T01:14:11;100066.34;;;24.33;62.28
63399;BME280;49533;-34.520;150.798;2023-02-26T01:19:37;100059.13;;;24.39;62.24
63399;BME280;49533;-34.520;150.798;2023-02-26T01:22:18;100061.09;;;24.45;62.04
63399;BME280;49533;-34.520;150.798;2023-02-26T01:24:48;100059.44;;;24.51;62.20
63399;BME280;49533;-34.520;150.798;2023-02-26T01:27:19;100045.53;;;24.55;62.23
63399;BME280;49533;-34.520;150.798;2023-02-26T01:29:46;100041.47;;;24.63;62.05
63399;BME280;49533;-34.520;150.798;2023-02-26T01:32:18;100044.63;;;24.65;61.87
63399;BME280;49533;-34.520;150.798;2023-02-26T01:35:04;100029.97;;;24.61;62.33
63399;BME280;49533;-34.520;150.798;2023-02-26T01:37:52;100037.81;;;24.70;62.17
63399;BME280;49533;-34.520;150.798;2023-02-26T01:40:44;100039.00;;;24.69;62.03
63399;BME280;49533;-34.520;150.798;2023-02-26T01:43:23;100036.66;;;24.67;62.20
63399;BME280;49533;-34.520;150.798;2023-02-26T01:46:04;100035.16;;;24.59;62.51
63399;BME280;49533;-34.520;150.798;2023-02-26T01:48:50;100033.59;;;24.58;62.13
63399;BME280;49533;-34.520;150.798;2023-02-26T01:51:18;100029.66;;;24.56;62.31
63399;BME280;49533;-34.520;150.798;2023-02-26T01:54:04;100026.31;;;24.68;62.29
63399;BME280;49533;-34.520;150.798;2023-02-26T01:56:32;100023.78;;;24.81;62.29
63399;BME280;49533;-34.520;150.798;2023-02-26T01:58:59;100022.91;;;24.87;62.18
63399;BME280;49533;-34.520;150.798;2023-02-26T02:01:32;100023.97;;;24.97;62.10
63399;BME280;49533;-34.520;150.798;2023-02-26T02:03:59;100014.31;;;25.05;62.40
63399;BME280;49533;-34.520;150.798;2023-02-26T02:06:27;100021.00;;;25.11;62.13
63399;BME280;49533;-34.520;150.798;2023-02-26T02:08:56;100011.03;;;25.14;62.20
63399;BME280;49533;-34.520;150.798;2023-02-26T02:11:23;100013.69;;;25.25;62.29
63399;BME280;49533;-34.520;150.798;2023-02-26T02:14:06;100009.59;;;25.33;61.89
63399;BME280;49533;-34.520;150.798;2023-02-26T02:16:47;100000.47;;;25.32;61.76
63399;BME280;49533;-34.520;150.798;2023-02-26T02:19:42;99990.56;;;25.31;61.25
63399;BME280;49533;-34.520;150.798;2023-02-26T02:22:34;99994.50;;;25.34;61.27
63399;BME280;49533;-34.520;150.798;2023-02-26T02:25:26;100000.84;;;25.34;60.91
63399;BME280;49533;-34.520;150.798;2023-02-26T02:28:29;99994.50;;;25.34;60.45
63399;BME280;49533;-34.520;150.798;2023-02-26T02:31:10;99993.88;;;25.46;60.79
63399;BME280;49533;-34.520;150.798;2023-02-26T02:33:51;100005.19;;;25.59;61.29
63399;BME280;49533;-34.520;150.798;2023-02-26T02:36:27;100002.78;;;25.61;61.29
63399;BME280;49533;-34.520;150.798;2023-02-26T02:39:03;100002.19;;;25.50;61.15
63399;BME280;49533;-34.520;150.798;2023-02-26T02:41:39;99995.78;;;25.53;60.91
63399;BME280;49533;-34.520;150.798;2023-02-26T02:44:12;99991.78;;;25.54;61.07
63399;BME280;49533;-34.520;150.798;2023-02-26T02:46:42;99985.19;;;25.68;61.27
63399;BME280;49533;-34.520;150.798;2023-02-26T02:49:13;99974.78;;;25.72;60.78
63399;BME280;49533;-34.520;150.798;2023-02-26T02:51:50;99970.81;;;25.73;61.24
63399;BME280;49533;-34.520;150.798;2023-02-26T02:54:33;99972.38;;;25.74;61.09
63399;BME280;49533;-34.520;150.798;2023-02-26T02:57:08;99973.28;;;25.67;61.25
63399;BME280;49533;-34.520;150.798;2023-02-26T02:59:43;99970.91;;;25.66;61.85
63399;BME280;49533;-34.520;150.798;2023-02-26T03:02:16;99966.50;;;25.68;62.03
63399;BME280;49533;-34.520;150.798;2023-02-26T03:04:47;99962.81;;;25.75;62.26
63399;BME280;49533;-34.520;150.798;2023-02-26T03:07:14;99965.16;;;25.76;62.51
63399;BME280;49533;-34.520;150.798;2023-02-26T03:09:42;99950.47;;;25.76;62.46
63399;BME280;49533;-34.520;150.798;2023-02-26T03:12:10;99947.97;;;25.85;62.72
63399;BME280;49533;-34.520;150.798;2023-02-26T03:14:38;99940.28;;;25.93;62.51
63399;BME280;49533;-34.520;150.798;2023-02-26T03:17:18;99939.34;;;25.99;62.81
63399;BME280;49533;-34.520;150.798;2023-02-26T03:20:06;99938.41;;;26.06;62.73
63399;BME280;49533;-34.520;150.798;2023-02-26T03:22:55;99935.91;;;26.12;62.78
63399;BME280;49533;-34.520;150.798;2023-02-26T03:25:39;99938.56;;;26.19;62.72
63399;BME280;49533;-34.520;150.798;2023-02-26T03:28:43;99925.56;;;26.12;62.13
63399;BME280;49533;-34.520;150.798;2023-02-26T03:31:17;99921.44;;;26.20;61.70
63399;BME280;49533;-34.520;150.798;2023-02-26T03:34:01;99913.94;;;26.17;61.10
63399;BME280;49533;-34.520;150.798;2023-02-26T03:36:35;99919.59;;;26.14;61.01
63399;BME280;49533;-34.520;150.798;2023-02-26T03:39:19;99917.56;;;26.14;61.19
63399;BME280;49533;-34.520;150.798;2023-02-26T03:42:03;99910.50;;;26.10;59.80
63399;BME280;49533;-34.520;150.798;2023-02-26T03:44:41;99906.94;;;26.09;60.61
63399;BME280;49533;-34.520;150.798;2023-02-26T03:47:13;99899.81;;;26.08;60.28
63399;BME280;49533;-34.520;150.798;2023-02-26T03:49:47;99899.38;;;26.10;59.72
63399;BME280;49533;-34.520;150.798;2023-02-26T03:52:16;99887.38;;;26.13;60.41
63399;BME280;49533;-34.520;150.798;2023-02-26T03:54:50;99881.66;;;26.20;60.54
63399;BME280;49533;-34.520;150.798;2023-02-26T03:57:21;99881.28;;;26.18;60.71
63399;BME280;49533;-34.520;150.798;2023-02-26T03:59:48;99886.44;;;26.19;61.07
63399;BME280;49533;-34.520;150.798;2023-02-26T04:02:21;99879.31;;;26.18;60.60
63399;BME280;49533;-34.520;150.798;2023-02-26T04:04:55;99879.97;;;26.26;60.81
63399;BME280;49533;-34.520;150.798;2023-02-26T04:07:23;99876.59;;;26.35;60.55
63399;BME280;49533;-34.520;150.798;2023-02-26T04:09:51;99881.59;;;26.43;60.68
63399;BME280;49533;-34.520;150.798;2023-02-26T04:12:22;99883.50;;;26.46;60.75
63399;BME280;49533;-34.520;150.798;2023-02-26T04:14:50;99879.56;;;26.44;60.37
63399;BME280;49533;-34.520;150.798;2023-02-26T04:20:40;99873.38;;;26.73;60.15
63399;BME280;49533;-34.520;150.798;2023-02-26T04:23:07;99870.34;;;26.67;59.92
63399;BME280;49533;-34.520;150.798;2023-02-26T04:25:34;99856.16;;;26.61;60.75
63399;BME280;49533;-34.520;150.798;2023-02-26T04:28:01;99862.56;;;26.58;60.87
63399;BME280;49533;-34.520;150.798;2023-02-26T04:30:28;99864.28;;;26.52;60.91
63399;BME280;49533;-34.520;150.798;2023-02-26T04:32:55;99866.47;;;26.61;60.57
63399;BME280;49533;-34.520;150.798;2023-02-26T04:35:22;99861.00;;;26.57;60.93
63399;BME280;49533;-34.520;150.798;2023-02-26T04:37:49;99871.38;;;26.57;60.24
63399;BME280;49533;-34.520;150.798;2023-02-26T04:40:17;99882.16;;;26.55;59.67
63399;BME280;49533;-34.520;150.798;2023-02-26T04:42:44;99859.09;;;26.54;60.07
63399;BME280;49533;-34.520;150.798;2023-02-26T04:45:11;99861.22;;;26.46;59.55
63399;BME280;49533;-34.520;150.798;2023-02-26T04:47:39;99859.09;;;26.54;59.43
63399;BME280;49533;-34.520;150.798;2023-02-26T04:50:06;99858.72;;;26.52;59.74
63399;BME280;49533;-34.520;150.798;2023-02-26T04:52:34;99856.34;;;26.51;60.11
63399;BME280;49533;-34.520;150.798;2023-02-26T04:55:01;99850.94;;;26.43;60.20
63399;BME280;49533;-34.520;150.798;2023-02-26T04:57:28;99853.72;;;26.43;60.18
63399;BME280;49533;-34.520;150.798;2023-02-26T04:59:55;99858.06;;;26.44;60.30
63399;BME280;49533;-34.520;150.798;2023-02-26T05:02:22;99848.06;;;26.47;60.18
63399;BME280;49533;-34.520;150.798;2023-02-26T05:04:49;99849.72;;;26.44;60.83
63399;BME280;49533;-34.520;150.798;2023-02-26T05:07:16;99850.50;;;26.45;60.88
63399;BME280;49533;-34.520;150.798;2023-02-26T05:09:43;99849.19;;;26.50;61.06
63399;BME280;49533;-34.520;150.798;2023-02-26T05:12:10;99838.41;;;26.52;60.97
63399;BME280;49533;-34.520;150.798;2023-02-26T05:14:38;99833.22;;;26.54;60.90
63399;BME280;49533;-34.520;150.798;2023-02-26T05:17:05;99835.63;;;26.52;61.65
63399;BME280;49533;-34.520;150.798;2023-02-26T05:19:32;99840.38;;;26.55;61.40
63399;BME280;49533;-34.520;150.798;2023-02-26T05:21:59;99834.69;;;26.58;61.48
63399;BME280;49533;-34.520;150.798;2023-02-26T05:24:26;99835.31;;;26.66;61.22
63399;BME280;49533;-34.520;150.798;2023-02-26T05:26:53;99823.50;;;26.62;61.29
63399;BME280;49533;-34.520;150.798;2023-02-26T05:29:20;99828.09;;;26.68;61.20
63399;BME280;49533;-34.520;150.798;2023-02-26T05:31:47;99823.75;;;26.67;61.30
63399;BME280;49533;-34.520;150.798;2023-02-26T05:34:14;99819.06;;;26.64;61.05
63399;BME280;49533;-34.520;150.798;2023-02-26T05:36:41;99821.75;;;26.68;61.25
63399;BME280;49533;-34.520;150.798;2023-02-26T05:39:09;99808.69;;;26.65;60.98
63399;BME280;49533;-34.520;150.798;2023-02-26T05:41:36;99810.59;;;26.68;61.45
63399;BME280;49533;-34.520;150.798;2023-02-26T05:44:03;99816.16;;;26.68;61.16
63399;BME280;49533;-34.520;150.798;2023-02-26T05:46:30;99820.19;;;26.67;60.90
63399;BME280;49533;-34.520;150.798;2023-02-26T05:48:57;99818.59;;;26.66;61.11
63399;BME280;49533;-34.520;150.798;2023-02-26T05:51:25;99808.06;;;26.57;61.27
63399;BME280;49533;-34.520;150.798;2023-02-26T05:53:53;99809.56;;;26.62;60.54
63399;BME280;49533;-34.520;150.798;2023-02-26T05:56:20;99823.41;;;26.65;61.24
63399;BME280;49533;-34.520;150.798;2023-02-26T05:58:48;99819.81;;;26.65;60.65
63399;BME280;49533;-34.520;150.798;2023-02-26T06:01:15;99830.63;;;26.63;60.80
63399;BME280;49533;-34.520;150.798;2023-02-26T06:03:42;99832.53;;;26.66;60.59
63399;BME280;49533;-34.520;150.798;2023-02-26T06:06:11;99825.03;;;26.63;60.75
63399;BME280;49533;-34.520;150.798;2023-02-26T06:08:39;99835.41;;;26.62;60.80
63399;BME280;49533;-34.520;150.798;2023-02-26T06:11:06;99830.63;;;26.63;60.75
63399;BME280;49533;-34.520;150.798;2023-02-26T06:13:33;99819.13;;;26.61;60.89
63399;BME280;49533;-34.520;150.798;2023-02-26T06:16:00;99828.97;;;26.65;60.74
63399;BME280;49533;-34.520;150.798;2023-02-26T06:18:28;99823.03;;;26.63;60.67
63399;BME280;49533;-34.520;150.798;2023-02-26T06:20:57;99818.59;;;26.66;60.46
63399;BME280;49533;-34.520;150.798;2023-02-26T06:23:25;99824.53;;;26.68;60.44
63399;BME280;49533;-34.520;150.798;2023-02-26T06:25:52;99818.94;;;26.68;60.31
63399;BME280;49533;-34.520;150.798;2023-02-26T06:28:19;99821.75;;;26.68;60.66
63399;BME280;49533;-34.520;150.798;2023-02-26T06:30:46;99822.63;;;26.65;60.18
63399;BME280;49533;-34.520;150.798;2023-02-26T06:33:13;99821.75;;;26.68;60.42
63399;BME280;49533;-34.520;150.798;2023-02-26T06:35:40;99811.47;;;26.65;60.53
63399;BME280;49533;-34.520;150.798;2023-02-26T06:38:08;99809.09;;;26.63;60.49
63399;BME280;49533;-34.520;150.798;2023-02-26T06:40:35;99823.47;;;26.78;60.21
63399;BME280;49533;-34.520;150.798;2023-02-26T06:43:02;99809.47;;;26.98;59.75
63399;BME280;49533;-34.520;150.798;2023-02-26T06:45:29;99821.47;;;27.11;59.44
63399;BME280;49533;-34.520;150.798;2023-02-26T06:47:56;99820.00;;;27.23;58.90
63399;BME280;49533;-34.520;150.798;2023-02-26T06:50:24;99818.59;;;27.31;58.89
63399;BME280;49533;-34.520;150.798;2023-02-26T06:52:51;99803.41;;;27.32;58.92
63399;BME280;49533;-34.520;150.798;2023-02-26T06:55:19;99817.09;;;27.43;58.89
63399;BME280;49533;-34.520;150.798;2023-02-26T06:57:47;99815.75;;;27.48;58.94
63399;BME280;49533;-34.520;150.798;2023-02-26T07:00:14;99806.63;;;27.47;58.73
63399;BME280;49533;-34.520;150.798;2023-02-26T07:02:41;99821.25;;;27.51;58.84
63399;BME280;49533;-34.520;150.798;2023-02-26T07:05:09;99820.25;;;27.58;58.70
63399;BME280;49533;-34.520;150.798;2023-02-26T07:07:36;99807.13;;;27.59;58.46
63399;BME280;49533;-34.520;150.798;2023-02-26T07:10:03;99829.34;;;27.62;58.79
63399;BME280;49533;-34.520;150.798;2023-02-26T07:12:31;99823.75;;;27.62;58.77
63399;BME280;49533;-34.520;150.798;2023-02-26T07:14:58;99824.09;;;27.64;58.59
63399;BME280;49533;-34.520;150.798;2023-02-26T07:17:25;99820.19;;;27.62;58.43
63399;BME280;49533;-34.520;150.798;2023-02-26T07:19:52;99821.19;;;27.68;58.30
63399;BME280;49533;-34.520;150.798;2023-02-26T07:22:20;99821.19;;;27.68;58.31
63399;BME280;49533;-34.520;150.798;2023-02-26T07:24:47;99822.78;;;27.69;58.29
63399;BME280;49533;-34.520;150.798;2023-02-26T07:27:15;99834.38;;;27.67;58.24
63399;BME280;49533;-34.520;150.798;2023-02-26T07:29:42;99833.47;;;27.70;58.56
63399;BME280;49533;-34.520;150.798;2023-02-26T07:32:09;99819.19;;;27.68;58.63
63399;BME280;49533;-34.520;150.798;2023-02-26T07:34:36;99823.91;;;27.71;58.18
63399;BME280;49533;-34.520;150.798;2023-02-26T07:37:03;99825.88;;;27.71;58.42
63399;BME280;49533;-34.520;150.798;2023-02-26T07:39:30;99825.88;;;27.71;58.34
63399;BME280;49533;-34.520;150.798;2023-02-26T07:41:57;99838.19;;;27.73;58.29
63399;BME280;49533;-34.520;150.798;2023-02-26T07:44:24;99824.56;;;27.75;58.51
63399;BME280;49533;-34.520;150.798;2023-02-26T07:46:51;99826.16;;;27.77;58.18
63399;BME280;49533;-34.520;150.798;2023-02-26T07:49:18;99830.94;;;27.76;58.17
63399;BME280;49533;-34.520;150.798;2023-02-26T07:51:46;99817.88;;;27.73;58.26
63399;BME280;49533;-34.520;150.798;2023-02-26T07:54:14;99834.41;;;27.80;58.05
63399;BME280;49533;-34.520;150.798;2023-02-26T07:56:41;99822.91;;;27.78;58.20
63399;BME280;49533;-34.520;150.798;2023-02-26T07:59:10;99821.34;;;27.77;58.19
63399;BME280;49533;-34.520;150.798;2023-02-26T08:01:38;99822.13;;;27.78;57.92
63399;BME280;49533;-34.520;150.798;2023-02-26T08:04:05;99825.25;;;27.80;58.01
63399;BME280;49533;-34.520;150.798;2023-02-26T08:06:32;99826.94;;;27.77;58.12
63399;BME280;49533;-34.520;150.798;2023-02-26T08:09:01;99834.06;;;27.78;58.04
63399;BME280;49533;-34.520;150.798;2023-02-26T08:11:28;99836.84;;;27.78;58.38
63399;BME280;49533;-34.520;150.798;2023-02-26T08:13:55;99829.25;;;27.79;57.94
63399;BME280;49533;-34.520;150.798;2023-02-26T08:16:22;99824.91;;;27.78;58.04
63399;BME280;49533;-34.520;150.798;2023-02-26T08:18:49;99832.16;;;27.75;58.25
63399;BME280;49533;-34.520;150.798;2023-02-26T08:21:16;99832.94;;;27.75;58.22
63399;BME280;49533;-34.520;150.798;2023-02-26T08:23:43;99833.47;;;27.70;58.09
63399;BME280;49533;-34.520;150.798;2023-02-26T08:26:11;99842.19;;;27.72;58.35
63399;BME280;49533;-34.520;150.798;2023-02-26T08:28:39;99829.69;;;27.64;58.14
63399;BME280;49533;-34.520;150.798;2023-02-26T08:31:07;99846.22;;;27.71;58.33
63399;BME280;49533;-34.520;150.798;2023-02-26T08:33:34;99838.63;;;27.72;58.27
63399;BME280;49533;-34.520;150.798;2023-02-26T08:36:01;99837.00;;;27.58;58.58
63399;BME280;49533;-34.520;150.798;2023-02-26T08:38:28;99842.50;;;27.62;58.93
63399;BME280;49533;-34.520;150.798;2023-02-26T08:40:56;99849.66;;;27.63;58.66
63399;BME280;49533;-34.520;150.798;2023-02-26T08:43:23;99850.75;;;27.65;58.47
63399;BME280;49533;-34.520;150.798;2023-02-26T08:45:53;99850.41;;;27.63;58.56
63399;BME280;49533;-34.520;150.798;2023-02-26T08:48:20;99859.91;;;27.66;58.38
63399;BME280;49533;-34.520;150.798;2023-02-26T08:50:47;99850.41;;;27.63;58.66
63399;BME280;49533;-34.520;150.798;2023-02-26T08:53:15;99856.06;;;27.47;58.93
63399;BME280;49533;-34.520;150.798;2023-02-26T08:55:42;99855.16;;;27.50;58.99
63399;BME280;49533;-34.520;150.798;2023-02-26T08:58:13;99853.97;;;27.51;58.83
63399;BME280;49533;-34.520;150.798;2023-02-26T09:00:40;99860.22;;;27.55;58.75
63399;BME280;49533;-34.520;150.798;2023-02-26T09:03:08;99854.63;;;27.55;58.74
63399;BME280;49533;-34.520;150.798;2023-02-26T09:05:35;99864.25;;;27.54;58.92
63399;BME280;49533;-34.520;150.798;2023-02-26T09:08:03;99857.06;;;27.53;58.90
63399;BME280;49533;-34.520;150.798;2023-02-26T09:10:30;99852.03;;;27.48;58.90
63399;BME280;49533;-34.520;150.798;2023-02-26T09:12:57;99856.06;;;27.47;59.01
63399;BME280;49533;-34.520;150.798;2023-02-26T09:15:24;99871.56;;;27.48;58.81
63399;BME280;49533;-34.520;150.798;2023-02-26T09:17:51;99866.44;;;27.46;58.85
63399;BME280;49533;-34.520;150.798;2023-02-26T09:20:18;99869.66;;;27.45;58.59
63399;BME280;49533;-34.520;150.798;2023-02-26T09:22:45;99868.53;;;27.42;58.65
63399;BME280;49533;-34.520;150.798;2023-02-26T09:25:13;99868.63;;;27.39;58.53
63399;BME280;49533;-34.520;150.798;2023-02-26T09:27:40;99878.56;;;27.40;58.40
63399;BME280;49533;-34.520;150.798;2023-02-26T09:30:09;99877.53;;;27.34;58.41
63399;BME280;49533;-34.520;150.798;2023-02-26T09:32:36;99872.13;;;27.26;58.35
63399;BME280;49533;-34.520;150.798;2023-02-26T09:35:04;99882.31;;;27.33;58.33
63399;BME280;49533;-34.520;150.798;2023-02-26T09:37:31;99881.50;;;27.32;58.51
63399;BME280;49533;-34.520;150.798;2023-02-26T09:39:59;99895.13;;;27.30;58.38
63399;BME280;49533;-34.520;150.798;2023-02-26T09:42:56;99898.78;;;27.27;58.30
63399;BME280;49533;-34.520;150.798;2023-02-26T09:45:30;99893.66;;;27.26;58.33
63399;BME280;49533;-34.520;150.798;2023-02-26T09:47:58;99901.66;;;27.24;58.18
63399;BME280;49533;-34.520;150.798;2023-02-26T09:50:40;99897.38;;;27.19;58.43
63399;BME280;49533;-34.520;150.798;2023-02-26T09:53:18;99905.34;;;27.21;58.70
63399;BME280;49533;-34.520;150.798;2023-02-26T09:55:48;99905.81;;;27.16;58.85
63399;BME280;49533;-34.520;150.798;2023-02-26T09:58:29;99906.59;;;27.16;58.79
63399;BME280;49533;-34.520;150.798;2023-02-26T10:01:11;99900.00;;;27.10;58.75
63399;BME280;49533;-34.520;150.798;2023-02-26T10:03:58;99913.84;;;27.14;59.08
63399;BME280;49533;-34.520;150.798;2023-02-26T10:06:38;99919.50;;;27.10;59.08
63399;BME280;49533;-34.520;150.798;2023-02-26T10:09:28;99917.16;;;27.08;58.62
63399;BME280;49533;-34.520;150.798;2023-02-26T10:12:08;99920.03;;;27.05;58.82
63399;BME280;49533;-34.520;150.798;2023-02-26T10:14:50;99914.97;;;27.00;58.87
63399;BME280;49533;-34.520;150.798;2023-02-26T10:17:36;99920.09;;;27.01;58.93
63399;BME280;49533;-34.520;150.798;2023-02-26T10:20:14;99924.91;;;27.01;58.96
63399;BME280;49533;-34.520;150.798;2023-02-26T10:22:56;99919.75;;;26.99;59.04
63399;BME280;49533;-34.520;150.798;2023-02-26T10:25:32;99918.59;;;26.97;58.98
63399;BME280;49533;-34.520;150.798;2023-02-26T10:28:10;99913.53;;;26.92;58.81
63399;BME280;49533;-34.520;150.798;2023-02-26T10:30:50;99903.38;;;26.85;59.11
63399;BME280;49533;-34.520;150.798;2023-02-26T10:33:39;99916.78;;;26.90;58.66
63399;BME280;49533;-34.520;150.798;2023-02-26T10:36:24;99910.50;;;26.86;59.09
63399;BME280;49533;-34.520;150.798;2023-02-26T10:38:58;99925.56;;;26.88;58.70
63399;BME280;49533;-34.520;150.798;2023-02-26T10:41:30;99914.94;;;26.83;59.11
63399;BME280;49533;-34.520;150.798;2023-02-26T10:44:05;99923.31;;;26.83;59.21
63399;BME280;49533;-34.520;150.798;2023-02-26T10:46:45;99923.63;;;26.69;60.06
63399;BME280;49533;-34.520;150.798;2023-02-26T10:49:40;99930.91;;;26.63;59.84
63399;BME280;49533;-34.520;150.798;2023-02-26T10:52:14;99922.06;;;26.68;59.92
63399;BME280;49533;-34.520;150.798;2023-02-26T10:57:55;99927.19;;;26.70;59.32
63399;BME280;49533;-34.520;150.798;2023-02-26T11:00:26;99926.41;;;26.69;59.15
63399;BME280;49533;-34.520;150.798;2023-02-26T11:02:54;99927.63;;;26.68;59.63
63399;BME280;49533;-34.520;150.798;2023-02-26T11:05:25;99930.50;;;26.64;59.52
63399;BME280;49533;-34.520;150.798;2023-02-26T11:07:57;99942.78;;;26.67;59.47
63399;BME280;49533;-34.520;150.798;2023-02-26T11:10:36;99950.78;;;26.65;59.76
63399;BME280;49533;-34.520;150.798;2023-02-26T11:13:04;99955.41;;;26.52;59.81
63399;BME280;49533;-34.520;150.798;2023-02-26T11:15:32;99962.94;;;26.55;59.85
63399;BME280;49533;-34.520;150.798;2023-02-26T11:17:59;99980.00;;;26.57;59.41
63399;BME280;49533;-34.520;150.798;2023-02-26T11:20:41;99975.63;;;26.56;59.92
63399;BME280;49533;-34.520;150.798;2023-02-26T11:23:13;99957.97;;;26.42;59.88
63399;BME280;49533;-34.520;150.798;2023-02-26T11:25:42;99971.78;;;26.50;59.98
63399;BME280;49533;-34.520;150.798;2023-02-26T11:28:22;99976.13;;;26.51;59.88
63399;BME280;49533;-34.520;150.798;2023-02-26T11:30:51;99973.50;;;26.43;60.10
63399;BME280;49533;-34.520;150.798;2023-02-26T11:33:27;99989.75;;;26.45;60.20
63399;BME280;49533;-34.520;150.798;2023-02-26T11:35:59;99987.75;;;26.45;60.13
63399;BME280;49533;-34.520;150.798;2023-02-26T11:38:28;99977.56;;;26.39;60.21
63399;BME280;49533;-34.520;150.798;2023-02-26T11:40:58;99982.69;;;26.40;59.94
63399;BME280;49533;-34.520;150.798;2023-02-26T11:43:41;99979.19;;;26.36;60.08
63399;BME280;49533;-34.520;150.798;2023-02-26T11:46:09;99965.78;;;26.31;60.03
63399;BME280;49533;-34.520;150.798;2023-02-26T11:48:41;99971.34;;;26.31;60.31
63399;BME280;49533;-34.520;150.798;2023-02-26T11:51:13;99989.25;;;26.30;60.34
63399;BME280;49533;-34.520;150.798;2023-02-26T11:53:49;99996.81;;;26.30;60.32
63399;BME280;49533;-34.520;150.798;2023-02-26T11:56:29;99992.91;;;26.27;60.30
63399;BME280;49533;-34.520;150.798;2023-02-26T11:59:01;99999.25;;;26.28;60.17
63399;BME280;49533;-34.520;150.798;2023-02-26T12:01:31;100007.28;;;26.26;60.02
63399;BME280;49533;-34.520;150.798;2023-02-26T12:04:01;100020.81;;;26.23;59.85
63399;BME280;49533;-34.520;150.798;2023-02-26T12:06:28;100025.38;;;26.14;60.08
63399;BME280;49533;-34.520;150.798;2023-02-26T12:08:56;100007.81;;;26.17;60.67
63399;BME280;49533;-34.520;150.798;2023-02-26T12:14:34;99995.53;;;26.14;60.63
63399;BME280;49533;-34.520;150.798;2023-02-26T12:17:26;100006.75;;;26.11;60.24
63399;BME280;49533;-34.520;150.798;2023-02-26T12:23:13;99986.81;;;26.12;60.06
63399;BME280;49533;-34.520;150.798;2023-02-26T12:26:00;99970.56;;;26.11;60.50
63399;BME280;49533;-34.520;150.798;2023-02-26T12:28:38;99980.09;;;26.10;60.66
63399;BME280;49533;-34.520;150.798;2023-02-26T12:31:31;99983.75;;;26.07;60.58
63399;BME280;49533;-34.520;150.798;2023-02-26T12:34:20;99979.03;;;26.03;60.04
63399;BME280;49533;-34.520;150.798;2023-02-26T12:37:18;99988.94;;;26.05;60.58
63399;BME280;49533;-34.520;150.798;2023-02-26T12:40:07;99966.31;;;26.02;60.35
63399;BME280;49533;-34.520;150.798;2023-02-26T12:45:51;99984.22;;;26.01;60.21
63399;BME280;49533;-34.520;150.798;2023-02-26T12:48:36;99992.66;;;25.98;60.74
63399;BME280;49533;-34.520;150.798;2023-02-26T12:51:28;99988.72;;;25.95;60.71
63399;BME280;49533;-34.520;150.798;2023-02-26T12:57:07;99981.66;;;25.91;60.29
63399;BME280;49533;-34.520;150.798;2023-02-26T13:03:11;99993.66;;;25.84;60.66
63399;BME280;49533;-34.520;150.798;2023-02-26T13:05:51;100002.44;;;25.83;61.13
63399;BME280;49533;-34.520;150.798;2023-02-26T13:08:40;100000.84;;;25.81;61.20
63399;BME280;49533;-34.520;150.798;2023-02-26T13:11:23;99995.00;;;25.76;60.94
63399;BME280;49533;-34.520;150.798;2023-02-26T13:14:06;100002.56;;;25.75;60.88
63399;BME280;49533;-34.520;150.798;2023-02-26T13:17:02;99987.97;;;25.68;61.01
63399;BME280;49533;-34.520;150.798;2023-02-26T13:19:41;100013.31;;;25.73;61.26